sensor_id;sensor_type;location;lat;lon;timestamp;P1;durP1;ratioP1;P2;durP2;ratioP2
55720;SDS011;41626;53.098;6.168;2022-12-24T00:01:20;23.17;;;15.65;;
55720;SDS011;41626;53.098;6.168;2022-12-24T00:03:46;23.13;;;16.10;;
55720;SDS011;41626;53.098;6.168;2022-12-24T00:06:14;24.98;;;16.27;;
55720;SDS011;41626;53.098;6.168;2022-12-24T00:08:44;23.48;;;15.60;;
55720;SDS011;41626;53.098;6.168;2022-12-24T00:11:10;25.90;;;16.35;;
55720;SDS011;41626;53.098;6.168;2022-12-24T00:13:36;24.88;;;16.17;;
55720;SDS011;41626;53.098;6.168;2022-12-24T00:16:02;24.30;;;16.13;;
55720;SDS011;41626;53.098;6.168;2022-12-24T00:18:28;25.50;;;16.80;;
55720;SDS011;41626;53.098;6.168;2022-12-24T00:20:53;25.13;;;16.30;;
55720;SDS011;41626;53.098;6.168;2022-12-24T00:23:19;25.60;;;16.67;;
55720;SDS011;41626;53.098;6.168;2022-12-24T00:25:51;31.38;;;18.00;;
55720;SDS011;41626;53.098;6.168;2022-12-24T00:28:24;28.27;;;17.33;;
55720;SDS011;41626;53.098;6.168;2022-12-24T00:30:50;33.90;;;19.25;;
55720;SDS011;41626;53.098;6.168;2022-12-24T00:36:20;26.35;;;16.90;;
55720;SDS011;41626;53.098;6.168;2022-12-24T00:38:46;29.13;;;18.88;;
55720;SDS011;41626;53.098;6.168;2022-12-24T00:41:12;22.85;;;16.50;;
55720;SDS011;41626;53.098;6.168;2022-12-24T00:43:53;22.38;;;16.02;;
55720;SDS011;41626;53.098;6.168;2022-12-24T00:46:21;25.17;;;17.00;;
55720;SDS011;41626;53.098;6.168;2022-12-24T00:48:48;24.55;;;16.77;;
55720;SDS011;41626;53.098;6.168;2022-12-24T00:51:13;27.08;;;16.70;;
55720;SDS011;41626;53.098;6.168;2022-12-24T00:53:39;25.48;;;16.92;;
55720;SDS011;41626;53.098;6.168;2022-12-24T00:56:05;25.42;;;16.52;;
55720;SDS011;41626;53.098;6.168;2022-12-24T00:58:31;26.55;;;17.35;;
55720;SDS011;41626;53.098;6.168;2022-12-24T01:00:57;27.92;;;17.30;;
55720;SDS011;41626;53.098;6.168;2022-12-24T01:03:23;25.92;;;17.00;;
55720;SDS011;41626;53.098;6.168;2022-12-24T01:05:59;29.25;;;17.58;;
55720;SDS011;41626;53.098;6.168;2022-12-24T01:08:28;26.85;;;17.52;;
55720;SDS011;41626;53.098;6.168;2022-12-24T01:10:54;31.13;;;18.17;;
55720;SDS011;41626;53.098;6.168;2022-12-24T01:13:20;30.52;;;17.17;;
55720;SDS011;41626;53.098;6.168;2022-12-24T01:15:45;25.40;;;16.55;;
55720;SDS011;41626;53.098;6.168;2022-12-24T01:18:11;29.38;;;18.23;;
55720;SDS011;41626;53.098;6.168;2022-12-24T01:20:37;27.73;;;16.85;;
55720;SDS011;41626;53.098;6.168;2022-12-24T01:23:03;28.05;;;17.70;;
55720;SDS011;41626;53.098;6.168;2022-12-24T01:25:28;29.70;;;17.52;;
55720;SDS011;41626;53.098;6.168;2022-12-24T01:27:54;27.58;;;17.17;;
55720;SDS011;41626;53.098;6.168;2022-12-24T01:30:19;27.52;;;18.23;;
55720;SDS011;41626;53.098;6.168;2022-12-24T01:32:45;35.10;;;19.97;;
55720;SDS011;41626;53.098;6.168;2022-12-24T01:35:11;24.67;;;17.33;;
55720;SDS011;41626;53.098;6.168;2022-12-24T01:37:36;35.03;;;18.23;;
55720;SDS011;41626;53.098;6.168;2022-12-24T01:40:03;31.73;;;18.33;;
55720;SDS011;41626;53.098;6.168;2022-12-24T01:42:49;27.63;;;17.13;;
55720;SDS011;41626;53.098;6.168;2022-12-24T01:48:01;32.63;;;20.10;;
55720;SDS011;41626;53.098;6.168;2022-12-24T01:50:28;30.27;;;18.30;;
55720;SDS011;41626;53.098;6.168;2022-12-24T01:52:54;34.30;;;20.17;;
55720;SDS011;41626;53.098;6.168;2022-12-24T01:55:20;34.15;;;19.40;;
55720;SDS011;41626;53.098;6.168;2022-12-24T01:57:53;37.83;;;20.27;;
55720;SDS011;41626;53.098;6.168;2022-12-24T02:00:21;29.30;;;19.10;;
55720;SDS011;41626;53.098;6.168;2022-12-24T02:02:47;29.02;;;18.52;;
55720;SDS011;41626;53.098;6.168;2022-12-24T02:05:16;29.08;;;19.95;;
55720;SDS011;41626;53.098;6.168;2022-12-24T02:07:46;33.35;;;20.95;;
55720;SDS011;41626;53.098;6.168;2022-12-24T02:10:14;29.40;;;19.67;;
55720;SDS011;41626;53.098;6.168;2022-12-24T02:12:40;28.58;;;19.55;;
55720;SDS011;41626;53.098;6.168;2022-12-24T02:15:08;33.53;;;20.92;;
55720;SDS011;41626;53.098;6.168;2022-12-24T02:31:55;27.15;;;18.58;;
55720;SDS011;41626;53.098;6.168;2022-12-24T02:34:43;24.40;;;18.98;;
55720;SDS011;41626;53.098;6.168;2022-12-24T02:37:16;23.50;;;18.02;;
55720;SDS011;41626;53.098;6.168;2022-12-24T02:39:56;21.92;;;16.73;;
55720;SDS011;41626;53.098;6.168;2022-12-24T02:42:41;21.42;;;17.45;;
55720;SDS011;41626;53.098;6.168;2022-12-24T02:45:14;26.70;;;17.83;;
55720;SDS011;41626;53.098;6.168;2022-12-24T02:47:44;25.27;;;18.02;;
55720;SDS011;41626;53.098;6.168;2022-12-24T02:50:12;25.55;;;16.20;;
55720;SDS011;41626;53.098;6.168;2022-12-24T02:52:40;23.60;;;15.70;;
55720;SDS011;41626;53.098;6.168;2022-12-24T02:55:11;17.63;;;14.10;;
55720;SDS011;41626;53.098;6.168;2022-12-24T03:01:07;21.83;;;14.32;;
55720;SDS011;41626;53.098;6.168;2022-12-24T03:07:16;20.60;;;13.50;;
55720;SDS011;41626;53.098;6.168;2022-12-24T03:09:49;28.73;;;14.52;;
55720;SDS011;41626;53.098;6.168;2022-12-24T03:12:37;23.48;;;13.32;;
55720;SDS011;41626;53.098;6.168;2022-12-24T03:15:07;27.90;;;13.52;;
55720;SDS011;41626;53.098;6.168;2022-12-24T03:17:36;25.90;;;12.80;;
55720;SDS011;41626;53.098;6.168;2022-12-24T03:20:04;31.90;;;12.43;;
55720;SDS011;41626;53.098;6.168;2022-12-24T03:22:32;30.00;;;11.33;;
55720;SDS011;41626;53.098;6.168;2022-12-24T03:24:59;30.10;;;10.93;;
55720;SDS011;41626;53.098;6.168;2022-12-24T03:27:26;32.42;;;9.85;;
55720;SDS011;41626;53.098;6.168;2022-12-24T03:29:54;35.90;;;9.55;;
55720;SDS011;41626;53.098;6.168;2022-12-24T03:32:27;32.33;;;7.53;;
55720;SDS011;41626;53.098;6.168;2022-12-24T03:34:55;37.53;;;8.90;;
55720;SDS011;41626;53.098;6.168;2022-12-24T03:37:21;40.67;;;7.63;;
55720;SDS011;41626;53.098;6.168;2022-12-24T03:39:47;36.88;;;7.72;;
55720;SDS011;41626;53.098;6.168;2022-12-24T03:42:13;29.92;;;7.03;;
55720;SDS011;41626;53.098;6.168;2022-12-24T03:44:38;38.70;;;7.03;;
55720;SDS011;41626;53.098;6.168;2022-12-24T03:47:04;36.25;;;7.70;;
55720;SDS011;41626;53.098;6.168;2022-12-24T03:49:30;35.50;;;6.07;;
55720;SDS011;41626;53.098;6.168;2022-12-24T03:51:55;47.63;;;8.73;;
55720;SDS011;41626;53.098;6.168;2022-12-24T03:54:21;34.57;;;7.50;;
55720;SDS011;41626;53.098;6.168;2022-12-24T03:56:47;40.33;;;7.00;;
55720;SDS011;41626;53.098;6.168;2022-12-24T03:59:12;36.83;;;6.83;;
55720;SDS011;41626;53.098;6.168;2022-12-24T04:01:38;39.67;;;9.30;;
55720;SDS011;41626;53.098;6.168;2022-12-24T04:04:04;42.53;;;7.87;;
55720;SDS011;41626;53.098;6.168;2022-12-24T04:06:30;39.00;;;7.00;;
55720;SDS011;41626;53.098;6.168;2022-12-24T04:08:55;42.83;;;8.60;;
55720;SDS011;41626;53.098;6.168;2022-12-24T04:11:23;44.88;;;7.07;;
55720;SDS011;41626;53.098;6.168;2022-12-24T04:13:49;40.13;;;8.30;;
55720;SDS011;41626;53.098;6.168;2022-12-24T04:16:14;36.03;;;7.83;;
55720;SDS011;41626;53.098;6.168;2022-12-24T04:18:41;39.92;;;9.07;;
55720;SDS011;41626;53.098;6.168;2022-12-24T04:21:07;33.22;;;7.15;;
55720;SDS011;41626;53.098;6.168;2022-12-24T04:23:34;46.65;;;8.68;;
55720;SDS011;41626;53.098;6.168;2022-12-24T04:26:02;35.33;;;7.22;;
55720;SDS011;41626;53.098;6.168;2022-12-24T04:28:29;36.50;;;7.88;;
55720;SDS011;41626;53.098;6.168;2022-12-24T04:30:59;42.87;;;8.07;;
55720;SDS011;41626;53.098;6.168;2022-12-24T04:33:33;42.97;;;8.25;;
55720;SDS011;41626;53.098;6.168;2022-12-24T04:35:59;43.45;;;8.73;;
55720;SDS011;41626;53.098;6.168;2022-12-24T04:38:28;40.03;;;7.78;;
55720;SDS011;41626;53.098;6.168;2022-12-24T04:40:59;39.13;;;7.80;;
55720;SDS011;41626;53.098;6.168;2022-12-24T04:43:27;38.28;;;7.15;;
55720;SDS011;41626;53.098;6.168;2022-12-24T04:45:53;51.80;;;10.15;;
55720;SDS011;41626;53.098;6.168;2022-12-24T04:48:19;42.87;;;7.93;;
55720;SDS011;41626;53.098;6.168;2022-12-24T04:50:44;43.17;;;8.10;;
55720;SDS011;41626;53.098;6.168;2022-12-24T04:53:10;47.40;;;9.47;;
55720;SDS011;41626;53.098;6.168;2022-12-24T04:55:42;38.28;;;8.43;;
55720;SDS011;41626;53.098;6.168;2022-12-24T04:58:10;38.03;;;8.15;;
55720;SDS011;41626;53.098;6.168;2022-12-24T05:00:36;46.45;;;7.57;;
55720;SDS011;41626;53.098;6.168;2022-12-24T05:03:02;51.53;;;9.07;;
55720;SDS011;41626;53.098;6.168;2022-12-24T05:05:28;39.20;;;8.03;;
55720;SDS011;41626;53.098;6.168;2022-12-24T05:07:54;43.65;;;8.98;;
55720;SDS011;41626;53.098;6.168;2022-12-24T05:10:19;41.67;;;8.20;;
55720;SDS011;41626;53.098;6.168;2022-12-24T05:12:46;39.50;;;7.22;;
55720;SDS011;41626;53.098;6.168;2022-12-24T05:15:11;47.57;;;10.33;;
55720;SDS011;41626;53.098;6.168;2022-12-24T05:17:37;52.40;;;8.90;;
55720;SDS011;41626;53.098;6.168;2022-12-24T05:20:03;44.67;;;9.33;;
55720;SDS011;41626;53.098;6.168;2022-12-24T05:22:29;40.67;;;9.13;;
55720;SDS011;41626;53.098;6.168;2022-12-24T05:25:13;42.80;;;8.23;;
55720;SDS011;41626;53.098;6.168;2022-12-24T05:27:57;47.25;;;8.88;;
55720;SDS011;41626;53.098;6.168;2022-12-24T05:30:23;47.43;;;8.80;;
55720;SDS011;41626;53.098;6.168;2022-12-24T05:32:48;51.00;;;10.60;;
55720;SDS011;41626;53.098;6.168;2022-12-24T05:35:14;52.33;;;9.63;;
55720;SDS011;41626;53.098;6.168;2022-12-24T05:37:40;48.97;;;8.57;;
55720;SDS011;41626;53.098;6.168;2022-12-24T05:40:06;47.03;;;8.20;;
55720;SDS011;41626;53.098;6.168;2022-12-24T05:42:32;66.47;;;10.60;;
55720;SDS011;41626;53.098;6.168;2022-12-24T05:44:57;46.40;;;7.68;;
55720;SDS011;41626;53.098;6.168;2022-12-24T05:47:23;54.10;;;10.00;;
55720;SDS011;41626;53.098;6.168;2022-12-24T05:49:49;54.67;;;10.00;;
55720;SDS011;41626;53.098;6.168;2022-12-24T05:52:14;44.77;;;8.63;;
55720;SDS011;41626;53.098;6.168;2022-12-24T05:54:40;59.03;;;9.97;;
55720;SDS011;41626;53.098;6.168;2022-12-24T05:57:05;48.87;;;7.77;;
55720;SDS011;41626;53.098;6.168;2022-12-24T05:59:32;36.97;;;7.45;;
55720;SDS011;41626;53.098;6.168;2022-12-24T06:01:57;50.60;;;8.90;;
55720;SDS011;41626;53.098;6.168;2022-12-24T06:04:23;45.88;;;8.70;;
55720;SDS011;41626;53.098;6.168;2022-12-24T06:06:49;46.33;;;9.18;;
55720;SDS011;41626;53.098;6.168;2022-12-24T06:09:14;44.67;;;8.15;;
55720;SDS011;41626;53.098;6.168;2022-12-24T06:11:41;49.38;;;8.95;;
55720;SDS011;41626;53.098;6.168;2022-12-24T06:14:07;44.63;;;8.93;;
55720;SDS011;41626;53.098;6.168;2022-12-24T06:16:33;52.20;;;7.88;;
55720;SDS011;41626;53.098;6.168;2022-12-24T06:18:58;36.72;;;7.03;;
55720;SDS011;41626;53.098;6.168;2022-12-24T06:21:24;45.47;;;9.20;;
55720;SDS011;41626;53.098;6.168;2022-12-24T06:23:50;46.37;;;9.37;;
55720;SDS011;41626;53.098;6.168;2022-12-24T06:26:17;42.10;;;8.13;;
55720;SDS011;41626;53.098;6.168;2022-12-24T06:28:45;47.67;;;9.50;;
55720;SDS011;41626;53.098;6.168;2022-12-24T06:31:12;51.93;;;10.07;;
55720;SDS011;41626;53.098;6.168;2022-12-24T06:33:39;41.72;;;8.07;;
55720;SDS011;41626;53.098;6.168;2022-12-24T06:36:05;39.65;;;8.32;;
55720;SDS011;41626;53.098;6.168;2022-12-24T06:38:32;43.22;;;8.25;;
55720;SDS011;41626;53.098;6.168;2022-12-24T06:40:57;47.47;;;7.07;;
55720;SDS011;41626;53.098;6.168;2022-12-24T06:43:23;47.67;;;9.05;;
55720;SDS011;41626;53.098;6.168;2022-12-24T06:45:49;47.35;;;7.50;;
55720;SDS011;41626;53.098;6.168;2022-12-24T06:48:15;48.30;;;6.83;;
55720;SDS011;41626;53.098;6.168;2022-12-24T06:50:41;45.00;;;7.80;;
55720;SDS011;41626;53.098;6.168;2022-12-24T06:53:07;46.47;;;8.48;;
55720;SDS011;41626;53.098;6.168;2022-12-24T06:55:33;43.60;;;8.73;;
55720;SDS011;41626;53.098;6.168;2022-12-24T06:57:59;46.10;;;9.18;;
55720;SDS011;41626;53.098;6.168;2022-12-24T07:00:24;43.17;;;8.97;;
55720;SDS011;41626;53.098;6.168;2022-12-24T07:02:50;35.50;;;6.93;;
55720;SDS011;41626;53.098;6.168;2022-12-24T07:05:16;41.38;;;8.07;;
55720;SDS011;41626;53.098;6.168;2022-12-24T07:07:42;38.72;;;8.35;;
55720;SDS011;41626;53.098;6.168;2022-12-24T07:10:13;40.03;;;9.05;;
55720;SDS011;41626;53.098;6.168;2022-12-24T07:12:40;42.97;;;8.80;;
55720;SDS011;41626;53.098;6.168;2022-12-24T07:15:06;47.30;;;8.27;;
55720;SDS011;41626;53.098;6.168;2022-12-24T07:17:33;39.88;;;8.73;;
55720;SDS011;41626;53.098;6.168;2022-12-24T07:19:59;39.07;;;7.60;;
55720;SDS011;41626;53.098;6.168;2022-12-24T07:22:24;40.93;;;6.40;;
55720;SDS011;41626;53.098;6.168;2022-12-24T07:24:50;38.87;;;7.90;;
55720;SDS011;41626;53.098;6.168;2022-12-24T07:27:16;39.90;;;8.20;;
55720;SDS011;41626;53.098;6.168;2022-12-24T07:29:41;36.08;;;6.72;;
55720;SDS011;41626;53.098;6.168;2022-12-24T07:32:07;46.08;;;9.25;;
55720;SDS011;41626;53.098;6.168;2022-12-24T07:34:33;42.80;;;9.65;;
55720;SDS011;41626;53.098;6.168;2022-12-24T07:36:59;43.40;;;9.63;;
55720;SDS011;41626;53.098;6.168;2022-12-24T07:39:25;48.47;;;10.10;;
55720;SDS011;41626;53.098;6.168;2022-12-24T07:41:50;42.60;;;7.33;;
55720;SDS011;41626;53.098;6.168;2022-12-24T07:44:16;46.90;;;7.87;;
55720;SDS011;41626;53.098;6.168;2022-12-24T07:46:42;44.33;;;9.23;;
55720;SDS011;41626;53.098;6.168;2022-12-24T07:49:08;46.20;;;8.73;;
55720;SDS011;41626;53.098;6.168;2022-12-24T07:51:34;52.15;;;8.60;;
55720;SDS011;41626;53.098;6.168;2022-12-24T07:54:00;54.28;;;9.48;;
55720;SDS011;41626;53.098;6.168;2022-12-24T07:56:26;47.70;;;9.18;;
55720;SDS011;41626;53.098;6.168;2022-12-24T07:58:52;57.20;;;12.23;;
55720;SDS011;41626;53.098;6.168;2022-12-24T08:01:17;47.22;;;7.78;;
55720;SDS011;41626;53.098;6.168;2022-12-24T08:03:43;47.35;;;7.88;;
55720;SDS011;41626;53.098;6.168;2022-12-24T08:06:09;48.75;;;9.13;;
55720;SDS011;41626;53.098;6.168;2022-12-24T08:08:35;43.77;;;8.47;;
55720;SDS011;41626;53.098;6.168;2022-12-24T08:11:02;45.05;;;8.90;;
55720;SDS011;41626;53.098;6.168;2022-12-24T08:13:29;49.60;;;9.27;;
55720;SDS011;41626;53.098;6.168;2022-12-24T08:15:56;45.97;;;7.82;;
55720;SDS011;41626;53.098;6.168;2022-12-24T08:18:22;43.75;;;9.07;;
55720;SDS011;41626;53.098;6.168;2022-12-24T08:20:48;49.50;;;9.07;;
55720;SDS011;41626;53.098;6.168;2022-12-24T08:23:14;54.40;;;11.07;;
55720;SDS011;41626;53.098;6.168;2022-12-24T08:25:43;42.95;;;8.68;;
55720;SDS011;41626;53.098;6.168;2022-12-24T08:28:10;50.60;;;8.80;;
55720;SDS011;41626;53.098;6.168;2022-12-24T08:30:37;43.67;;;9.15;;
55720;SDS011;41626;53.098;6.168;2022-12-24T08:33:03;47.10;;;9.68;;
55720;SDS011;41626;53.098;6.168;2022-12-24T08:35:29;52.43;;;9.67;;
55720;SDS011;41626;53.098;6.168;2022-12-24T08:37:55;35.37;;;7.83;;
55720;SDS011;41626;53.098;6.168;2022-12-24T08:40:20;43.23;;;7.73;;
55720;SDS011;41626;53.098;6.168;2022-12-24T08:42:46;45.60;;;9.07;;
55720;SDS011;41626;53.098;6.168;2022-12-24T08:45:12;45.97;;;9.07;;
55720;SDS011;41626;53.098;6.168;2022-12-24T08:47:38;40.17;;;8.13;;
55720;SDS011;41626;53.098;6.168;2022-12-24T08:50:04;39.40;;;8.68;;
55720;SDS011;41626;53.098;6.168;2022-12-24T08:52:30;30.40;;;7.82;;
55720;SDS011;41626;53.098;6.168;2022-12-24T08:54:56;41.08;;;8.75;;
55720;SDS011;41626;53.098;6.168;2022-12-24T08:57:22;43.45;;;8.90;;
55720;SDS011;41626;53.098;6.168;2022-12-24T08:59:48;44.83;;;9.60;;
55720;SDS011;41626;53.098;6.168;2022-12-24T09:02:13;32.65;;;6.75;;
55720;SDS011;41626;53.098;6.168;2022-12-24T09:04:39;37.05;;;8.05;;
55720;SDS011;41626;53.098;6.168;2022-12-24T09:07:05;45.42;;;9.10;;
55720;SDS011;41626;53.098;6.168;2022-12-24T09:09:31;46.20;;;8.95;;
55720;SDS011;41626;53.098;6.168;2022-12-24T09:11:57;40.90;;;7.40;;
55720;SDS011;41626;53.098;6.168;2022-12-24T09:14:22;37.97;;;7.17;;
55720;SDS011;41626;53.098;6.168;2022-12-24T09:16:48;36.63;;;6.80;;
55720;SDS011;41626;53.098;6.168;2022-12-24T09:19:14;34.20;;;7.67;;
55720;SDS011;41626;53.098;6.168;2022-12-24T09:21:39;42.83;;;7.93;;
55720;SDS011;41626;53.098;6.168;2022-12-24T09:24:05;40.43;;;7.53;;
55720;SDS011;41626;53.098;6.168;2022-12-24T09:26:31;39.30;;;8.93;;
55720;SDS011;41626;53.098;6.168;2022-12-24T09:28:57;37.07;;;8.10;;
55720;SDS011;41626;53.098;6.168;2022-12-24T09:31:24;40.13;;;9.45;;
55720;SDS011;41626;53.098;6.168;2022-12-24T09:33:51;43.13;;;8.77;;
55720;SDS011;41626;53.098;6.168;2022-12-24T09:40:04;37.03;;;7.75;;
55720;SDS011;41626;53.098;6.168;2022-12-24T09:45:17;43.00;;;8.43;;
55720;SDS011;41626;53.098;6.168;2022-12-24T09:48:04;46.45;;;9.30;;
55720;SDS011;41626;53.098;6.168;2022-12-24T09:50:39;42.60;;;8.73;;
55720;SDS011;41626;53.098;6.168;2022-12-24T09:53:29;39.40;;;9.48;;
55720;SDS011;41626;53.098;6.168;2022-12-24T09:56:06;42.33;;;8.37;;
55720;SDS011;41626;53.098;6.168;2022-12-24T09:58:52;41.63;;;9.05;;
55720;SDS011;41626;53.098;6.168;2022-12-24T10:01:23;41.47;;;9.75;;
55720;SDS011;41626;53.098;6.168;2022-12-24T10:03:49;39.10;;;8.97;;
55720;SDS011;41626;53.098;6.168;2022-12-24T10:06:16;43.30;;;8.70;;
55720;SDS011;41626;53.098;6.168;2022-12-24T10:11:48;34.28;;;6.97;;
55720;SDS011;41626;53.098;6.168;2022-12-24T10:22:37;33.38;;;6.78;;
55720;SDS011;41626;53.098;6.168;2022-12-24T10:28:01;34.55;;;7.50;;
55720;SDS011;41626;53.098;6.168;2022-12-24T10:30:36;28.52;;;6.63;;
55720;SDS011;41626;53.098;6.168;2022-12-24T10:33:08;32.33;;;7.13;;
55720;SDS011;41626;53.098;6.168;2022-12-24T10:35:44;34.77;;;7.37;;
55720;SDS011;41626;53.098;6.168;2022-12-24T10:38:13;40.13;;;7.57;;
55720;SDS011;41626;53.098;6.168;2022-12-24T10:40:39;35.22;;;8.52;;
55720;SDS011;41626;53.098;6.168;2022-12-24T10:43:14;29.83;;;7.57;;
55720;SDS011;41626;53.098;6.168;2022-12-24T10:45:45;35.97;;;7.75;;
55720;SDS011;41626;53.098;6.168;2022-12-24T10:48:24;39.50;;;7.82;;
55720;SDS011;41626;53.098;6.168;2022-12-24T10:51:05;30.35;;;6.50;;
55720;SDS011;41626;53.098;6.168;2022-12-24T10:53:39;29.25;;;7.10;;
55720;SDS011;41626;53.098;6.168;2022-12-24T10:56:10;30.63;;;7.63;;
55720;SDS011;41626;53.098;6.168;2022-12-24T10:58:50;42.53;;;8.10;;
55720;SDS011;41626;53.098;6.168;2022-12-24T11:01:18;30.70;;;6.18;;
55720;SDS011;41626;53.098;6.168;2022-12-24T11:03:44;34.15;;;6.88;;
55720;SDS011;41626;53.098;6.168;2022-12-24T11:06:23;33.55;;;7.43;;
55720;SDS011;41626;53.098;6.168;2022-12-24T11:08:49;31.88;;;6.95;;
55720;SDS011;41626;53.098;6.168;2022-12-24T11:11:15;39.92;;;7.97;;
55720;SDS011;41626;53.098;6.168;2022-12-24T11:16:16;33.78;;;7.90;;
55720;SDS011;41626;53.098;6.168;2022-12-24T11:18:47;34.60;;;8.07;;
55720;SDS011;41626;53.098;6.168;2022-12-24T11:21:20;33.05;;;7.05;;
55720;SDS011;41626;53.098;6.168;2022-12-24T11:24:06;29.63;;;6.30;;
55720;SDS011;41626;53.098;6.168;2022-12-24T11:26:42;30.30;;;6.63;;
55720;SDS011;41626;53.098;6.168;2022-12-24T11:31:44;29.17;;;5.83;;
55720;SDS011;41626;53.098;6.168;2022-12-24T11:36:42;31.17;;;7.90;;
55720;SDS011;41626;53.098;6.168;2022-12-24T11:39:09;30.45;;;5.72;;
55720;SDS011;41626;53.098;6.168;2022-12-24T11:41:46;29.13;;;6.50;;
55720;SDS011;41626;53.098;6.168;2022-12-24T11:44:24;30.48;;;5.97;;
55720;SDS011;41626;53.098;6.168;2022-12-24T11:46:51;35.95;;;5.70;;
55720;SDS011;41626;53.098;6.168;2022-12-24T11:49:29;28.40;;;6.38;;
55720;SDS011;41626;53.098;6.168;2022-12-24T11:52:01;33.47;;;6.50;;
55720;SDS011;41626;53.098;6.168;2022-12-24T11:54:47;32.17;;;6.10;;
55720;SDS011;41626;53.098;6.168;2022-12-24T12:00:26;36.50;;;7.63;;
55720;SDS011;41626;53.098;6.168;2022-12-24T12:02:53;34.92;;;6.72;;
55720;SDS011;41626;53.098;6.168;2022-12-24T12:05:24;29.33;;;6.32;;
55720;SDS011;41626;53.098;6.168;2022-12-24T12:08:07;27.55;;;5.03;;
55720;SDS011;41626;53.098;6.168;2022-12-24T12:10:44;31.75;;;5.40;;
55720;SDS011;41626;53.098;6.168;2022-12-24T12:13:12;29.23;;;6.20;;
55720;SDS011;41626;53.098;6.168;2022-12-24T12:15:46;25.88;;;8.02;;
55720;SDS011;41626;53.098;6.168;2022-12-24T12:18:23;31.35;;;7.30;;
55720;SDS011;41626;53.098;6.168;2022-12-24T12:21:13;27.92;;;6.10;;
55720;SDS011;41626;53.098;6.168;2022-12-24T12:23:45;26.33;;;5.68;;
55720;SDS011;41626;53.098;6.168;2022-12-24T12:31:41;32.15;;;6.28;;
55720;SDS011;41626;53.098;6.168;2022-12-24T12:34:16;27.52;;;5.68;;
55720;SDS011;41626;53.098;6.168;2022-12-24T12:36:52;30.77;;;7.13;;
55720;SDS011;41626;53.098;6.168;2022-12-24T12:39:39;28.42;;;6.13;;
55720;SDS011;41626;53.098;6.168;2022-12-24T12:42:16;28.77;;;5.87;;
55720;SDS011;41626;53.098;6.168;2022-12-24T12:53:43;25.23;;;5.45;;
55720;SDS011;41626;53.098;6.168;2022-12-24T12:56:20;23.45;;;6.07;;
55720;SDS011;41626;53.098;6.168;2022-12-24T12:58:56;24.08;;;5.10;;
55720;SDS011;41626;53.098;6.168;2022-12-24T13:12:23;29.48;;;5.35;;
55720;SDS011;41626;53.098;6.168;2022-12-24T13:21:13;28.35;;;5.47;;
55720;SDS011;41626;53.098;6.168;2022-12-24T13:23:41;34.10;;;6.07;;
55720;SDS011;41626;53.098;6.168;2022-12-24T13:26:11;27.02;;;5.60;;
55720;SDS011;41626;53.098;6.168;2022-12-24T13:28:38;20.23;;;5.32;;
55720;SDS011;41626;53.098;6.168;2022-12-24T13:36:12;24.98;;;4.53;;
55720;SDS011;41626;53.098;6.168;2022-12-24T13:49:39;23.77;;;5.30;;
55720;SDS011;41626;53.098;6.168;2022-12-24T13:54:42;21.50;;;3.63;;
55720;SDS011;41626;53.098;6.168;2022-12-24T13:57:28;21.10;;;5.03;;
55720;SDS011;41626;53.098;6.168;2022-12-24T14:00:21;22.27;;;4.95;;
55720;SDS011;41626;53.098;6.168;2022-12-24T14:03:02;24.88;;;5.60;;
55720;SDS011;41626;53.098;6.168;2022-12-24T14:05:43;20.55;;;4.93;;
55720;SDS011;41626;53.098;6.168;2022-12-24T14:10:41;30.23;;;5.95;;
55720;SDS011;41626;53.098;6.168;2022-12-24T14:18:29;19.52;;;5.28;;
55720;SDS011;41626;53.098;6.168;2022-12-24T14:20:58;22.80;;;4.40;;
55720;SDS011;41626;53.098;6.168;2022-12-24T14:25:50;16.73;;;3.40;;
55720;SDS011;41626;53.098;6.168;2022-12-24T14:28:16;22.50;;;4.75;;
55720;SDS011;41626;53.098;6.168;2022-12-24T14:30:47;22.10;;;5.45;;
55720;SDS011;41626;53.098;6.168;2022-12-24T14:33:31;18.40;;;5.10;;
55720;SDS011;41626;53.098;6.168;2022-12-24T14:35:58;17.85;;;4.85;;
55720;SDS011;41626;53.098;6.168;2022-12-24T14:38:26;18.25;;;4.65;;
55720;SDS011;41626;53.098;6.168;2022-12-24T14:43:24;26.15;;;4.82;;
55720;SDS011;41626;53.098;6.168;2022-12-24T14:46:11;21.30;;;4.47;;
55720;SDS011;41626;53.098;6.168;2022-12-24T14:49:05;19.30;;;3.65;;
55720;SDS011;41626;53.098;6.168;2022-12-24T14:51:56;25.35;;;6.00;;
55720;SDS011;41626;53.098;6.168;2022-12-24T14:54:50;23.40;;;4.50;;
55720;SDS011;41626;53.098;6.168;2022-12-24T14:57:19;23.58;;;4.40;;
55720;SDS011;41626;53.098;6.168;2022-12-24T14:59:51;22.38;;;4.15;;
55720;SDS011;41626;53.098;6.168;2022-12-24T15:02:59;26.60;;;4.93;;
55720;SDS011;41626;53.098;6.168;2022-12-24T15:05:08;20.42;;;3.83;;
55720;SDS011;41626;53.098;6.168;2022-12-24T15:07:38;15.25;;;3.30;;
55720;SDS011;41626;53.098;6.168;2022-12-24T15:10:18;20.25;;;4.57;;
55720;SDS011;41626;53.098;6.168;2022-12-24T15:12:50;18.85;;;4.05;;
55720;SDS011;41626;53.098;6.168;2022-12-24T15:15:16;20.70;;;4.38;;
55720;SDS011;41626;53.098;6.168;2022-12-24T15:17:43;19.57;;;4.13;;
55720;SDS011;41626;53.098;6.168;2022-12-24T15:20:13;20.92;;;4.30;;
55720;SDS011;41626;53.098;6.168;2022-12-24T15:22:45;17.23;;;4.95;;
55720;SDS011;41626;53.098;6.168;2022-12-24T15:25:16;26.75;;;5.47;;
55720;SDS011;41626;53.098;6.168;2022-12-24T15:27:44;18.25;;;3.88;;
55720;SDS011;41626;53.098;6.168;2022-12-24T15:30:15;19.30;;;4.07;;
55720;SDS011;41626;53.098;6.168;2022-12-24T15:32:46;17.45;;;5.30;;
55720;SDS011;41626;53.098;6.168;2022-12-24T15:38:15;20.38;;;5.00;;
55720;SDS011;41626;53.098;6.168;2022-12-24T15:40:47;23.90;;;5.03;;
55720;SDS011;41626;53.098;6.168;2022-12-24T15:43:13;20.25;;;4.57;;
55720;SDS011;41626;53.098;6.168;2022-12-24T15:45:40;19.40;;;4.13;;
55720;SDS011;41626;53.098;6.168;2022-12-24T15:48:10;26.50;;;5.30;;
55720;SDS011;41626;53.098;6.168;2022-12-24T15:50:43;20.80;;;4.53;;
55720;SDS011;41626;53.098;6.168;2022-12-24T15:53:13;23.10;;;5.80;;
55720;SDS011;41626;53.098;6.168;2022-12-24T15:56:04;19.23;;;5.28;;
55720;SDS011;41626;53.098;6.168;2022-12-24T15:58:42;21.00;;;5.50;;
55720;SDS011;41626;53.098;6.168;2022-12-24T16:03:38;25.05;;;7.82;;
55720;SDS011;41626;53.098;6.168;2022-12-24T16:08:38;22.58;;;10.05;;
55720;SDS011;41626;53.098;6.168;2022-12-24T16:11:07;28.40;;;10.88;;
55720;SDS011;41626;53.098;6.168;2022-12-24T16:13:55;32.72;;;12.52;;
55720;SDS011;41626;53.098;6.168;2022-12-24T16:16:42;25.13;;;6.95;;
55720;SDS011;41626;53.098;6.168;2022-12-24T16:19:20;26.27;;;7.35;;
55720;SDS011;41626;53.098;6.168;2022-12-24T16:21:55;21.45;;;5.40;;
55720;SDS011;41626;53.098;6.168;2022-12-24T16:24:24;28.37;;;7.97;;
55720;SDS011;41626;53.098;6.168;2022-12-24T16:26:53;23.77;;;5.45;;
55720;SDS011;41626;53.098;6.168;2022-12-24T16:29:19;38.85;;;7.80;;
55720;SDS011;41626;53.098;6.168;2022-12-24T16:31:53;26.55;;;5.05;;
55720;SDS011;41626;53.098;6.168;2022-12-24T16:34:27;23.95;;;5.10;;
55720;SDS011;41626;53.098;6.168;2022-12-24T16:36:54;22.20;;;5.70;;
55720;SDS011;41626;53.098;6.168;2022-12-24T16:39:31;29.38;;;6.53;;
55720;SDS011;41626;53.098;6.168;2022-12-24T16:41:59;28.77;;;5.90;;
55720;SDS011;41626;53.098;6.168;2022-12-24T16:44:45;26.10;;;5.93;;
55720;SDS011;41626;53.098;6.168;2022-12-24T16:47:25;31.80;;;5.90;;
55720;SDS011;41626;53.098;6.168;2022-12-24T16:49:55;30.83;;;7.45;;
55720;SDS011;41626;53.098;6.168;2022-12-24T16:52:23;36.40;;;6.68;;
55720;SDS011;41626;53.098;6.168;2022-12-24T16:54:52;31.77;;;4.85;;